sensor_id;sensor_type;location;lat;lon;timestamp;pressure;altitude;pressure_sealevel;temperature;humidity
33404;BME280;19751;40.274;18.268;2023-04-26T00:01:57;100274.38;;;16.02;100.00
33404;BME280;19751;40.274;18.268;2023-04-26T00:04:23;100274.59;;;16.01;100.00
33404;BME280;19751;40.274;18.268;2023-04-26T00:06:49;100270.22;;;16.00;100.00
33404;BME280;19751;40.274;18.268;2023-04-26T00:09:15;100281.09;;;16.00;100.00
33404;BME280;19751;40.274;18.268;2023-04-26T00:11:40;100275.91;;;15.98;100.00
33404;BME280;19751;40.274;18.268;2023-04-26T00:14:06;100283.22;;;15.98;100.00
33404;BME280;19751;40.274;18.268;2023-04-26T00:16:32;100286.78;;;15.98;100.00
33404;BME280;19751;40.274;18.268;2023-04-26T00:18:58;100285.94;;;15.98;100.00
33404;BME280;19751;40.274;18.268;2023-04-26T00:21:23;100288.66;;;15.98;100.00
33404;BME280;19751;40.274;18.268;2023-04-26T00:23:49;100287.47;;;15.94;100.00
33404;BME280;19751;40.274;18.268;2023-04-26T00:26:14;100285.84;;;15.93;100.00
33404;BME280;19751;40.274;18.268;2023-04-26T00:28:40;100282.25;;;15.92;100.00
33404;BME280;19751;40.274;18.268;2023-04-26T00:31:05;100285.22;;;15.90;100.00
33404;BME280;19751;40.274;18.268;2023-04-26T00:33:31;100293.84;;;15.87;100.00
33404;BME280;19751;40.274;18.268;2023-04-26T00:35:57;100288.41;;;15.87;100.00
33404;BME280;19751;40.274;18.268;2023-04-26T00:38:22;100293.25;;;15.85;100.00
33404;BME280;19751;40.274;18.268;2023-04-26T00:40:48;100301.28;;;15.80;100.00
33404;BME280;19751;40.274;18.268;2023-04-26T00:43:13;100303.41;;;15.78;100.00
33404;BME280;19751;40.274;18.268;2023-04-26T00:45:39;100295.50;;;15.77;100.00
33404;BME280;19751;40.274;18.268;2023-04-26T00:48:04;100299.03;;;15.77;100.00
33404;BME280;19751;40.274;18.268;2023-04-26T00:50:30;100300.22;;;15.81;100.00
33404;BME280;19751;40.274;18.268;2023-04-26T00:52:57;100294.34;;;15.84;100.00
33404;BME280;19751;40.274;18.268;2023-04-26T00:55:23;100298.91;;;15.84;100.00
33404;BME280;19751;40.274;18.268;2023-04-26T00:57:51;100296.44;;;15.82;100.00
33404;BME280;19751;40.274;18.268;2023-04-26T01:00:17;100315.00;;;15.85;100.00
33404;BME280;19751;40.274;18.268;2023-04-26T01:02:43;100307.06;;;15.84;100.00
33404;BME280;19751;40.274;18.268;2023-04-26T01:05:09;100307.06;;;15.84;100.00
33404;BME280;19751;40.274;18.268;2023-04-26T01:07:36;100303.75;;;15.82;100.00
33404;BME280;19751;40.274;18.268;2023-04-26T01:10:03;100302.81;;;15.76;100.00
33404;BME280;19751;40.274;18.268;2023-04-26T01:12:30;100306.81;;;15.74;100.00
33404;BME280;19751;40.274;18.268;2023-04-26T01:14:56;100312.97;;;15.69;100.00
33404;BME280;19751;40.274;18.268;2023-04-26T01:17:22;100302.97;;;15.63;100.00
33404;BME280;19751;40.274;18.268;2023-04-26T01:19:48;100300.97;;;15.58;100.00
33404;BME280;19751;40.274;18.268;2023-04-26T01:22:14;100304.50;;;15.59;100.00
33404;BME280;19751;40.274;18.268;2023-04-26T01:24:42;100302.03;;;15.57;100.00
33404;BME280;19751;40.274;18.268;2023-04-26T01:27:08;100305.00;;;15.56;100.00
33404;BME280;19751;40.274;18.268;2023-04-26T01:29:34;100308.53;;;15.56;100.00
33404;BME280;19751;40.274;18.268;2023-04-26T01:32:00;100295.66;;;15.52;100.00
33404;BME280;19751;40.274;18.268;2023-04-26T01:34:26;100306.16;;;15.48;100.00
33404;BME280;19751;40.274;18.268;2023-04-26T01:36:51;100307.69;;;15.44;100.00
33404;BME280;19751;40.274;18.268;2023-04-26T01:39:17;100312.03;;;15.45;100.00
33404;BME280;19751;40.274;18.268;2023-04-26T01:41:42;100324.53;;;15.46;100.00
33404;BME280;19751;40.274;18.268;2023-04-26T01:44:08;100318.28;;;15.46;100.00
33404;BME280;19751;40.274;18.268;2023-04-26T01:46:33;100316.03;;;15.42;100.00
33404;BME280;19751;40.274;18.268;2023-04-26T01:48:59;100319.81;;;15.41;100.00
33404;BME280;19751;40.274;18.268;2023-04-26T01:51:24;100315.00;;;15.44;100.00
33404;BME280;19751;40.274;18.268;2023-04-26T01:53:51;100316.63;;;15.45;100.00
33404;BME280;19751;40.274;18.268;2023-04-26T01:56:17;100318.91;;;15.48;100.00
33404;BME280;19751;40.274;18.268;2023-04-26T01:58:43;100316.19;;;15.48;100.00
33404;BME280;19751;40.274;18.268;2023-04-26T02:01:08;100327.03;;;15.48;100.00
33404;BME280;19751;40.274;18.268;2023-04-26T02:03:34;100326.78;;;15.49;100.00
33404;BME280;19751;40.274;18.268;2023-04-26T02:06:00;100329.75;;;15.48;100.00
33404;BME280;19751;40.274;18.268;2023-04-26T02:08:26;100329.97;;;15.46;100.00
33404;BME280;19751;40.274;18.268;2023-04-26T02:10:51;100325.84;;;15.44;100.00
33404;BME280;19751;40.274;18.268;2023-04-26T02:13:17;100328.19;;;15.40;100.00
33404;BME280;19751;40.274;18.268;2023-04-26T02:15:48;100336.41;;;15.33;100.00
33404;BME280;19751;40.274;18.268;2023-04-26T02:18:14;100340.66;;;15.29;100.00
33404;BME280;19751;40.274;18.268;2023-04-26T02:20:41;100340.66;;;15.29;100.00
33404;BME280;19751;40.274;18.268;2023-04-26T02:23:11;100335.72;;;15.26;100.00
33404;BME280;19751;40.274;18.268;2023-04-26T02:25:37;100331.56;;;15.24;100.00
33404;BME280;19751;40.274;18.268;2023-04-26T02:28:04;100340.28;;;15.26;100.00
33404;BME280;19751;40.274;18.268;2023-04-26T02:30:29;100337.81;;;15.24;100.00
33404;BME280;19751;40.274;18.268;2023-04-26T02:32:56;100336.75;;;15.25;100.00
33404;BME280;19751;40.274;18.268;2023-04-26T02:35:22;100341.13;;;15.26;100.00
33404;BME280;19751;40.274;18.268;2023-04-26T02:37:48;100343.84;;;15.26;100.00
33404;BME280;19751;40.274;18.268;2023-04-26T02:40:14;100343.38;;;15.29;100.00
33404;BME280;19751;40.274;18.268;2023-04-26T02:42:40;100346.91;;;15.30;100.00
33404;BME280;19751;40.274;18.268;2023-04-26T02:45:06;100342.31;;;15.30;100.00
33404;BME280;19751;40.274;18.268;2023-04-26T02:47:32;100348.78;;;15.29;100.00
33404;BME280;19751;40.274;18.268;2023-04-26T02:49:57;100349.59;;;15.18;100.00
33404;BME280;19751;40.274;18.268;2023-04-26T02:52:23;100355.00;;;15.18;100.00
33404;BME280;19751;40.274;18.268;2023-04-26T02:54:48;100346.63;;;15.20;100.00
33404;BME280;19751;40.274;18.268;2023-04-26T02:57:14;100353.94;;;15.19;100.00
33404;BME280;19751;40.274;18.268;2023-04-26T02:59:39;100350.78;;;15.22;100.00
33404;BME280;19751;40.274;18.268;2023-04-26T03:02:05;100361.03;;;15.20;100.00
33404;BME280;19751;40.274;18.268;2023-04-26T03:04:32;100366.69;;;15.19;100.00
33404;BME280;19751;40.274;18.268;2023-04-26T03:06:58;100366.75;;;15.12;100.00
33404;BME280;19751;40.274;18.268;2023-04-26T03:09:24;100375.97;;;15.11;100.00
33404;BME280;19751;40.274;18.268;2023-04-26T03:11:49;100379.94;;;15.08;100.00
33404;BME280;19751;40.274;18.268;2023-04-26T03:14:15;100379.38;;;15.06;100.00
33404;BME280;19751;40.274;18.268;2023-04-26T03:16:41;100379.00;;;15.03;100.00
33404;BME280;19751;40.274;18.268;2023-04-26T03:19:07;100380.50;;;14.99;100.00
33404;BME280;19751;40.274;18.268;2023-04-26T03:21:33;100383.66;;;14.96;100.00
33404;BME280;19751;40.274;18.268;2023-04-26T03:23:59;100387.19;;;14.96;100.00
33404;BME280;19751;40.274;18.268;2023-04-26T03:26:24;100389.06;;;14.96;100.00
33404;BME280;19751;40.274;18.268;2023-04-26T03:28:49;100392.91;;;14.88;100.00
33404;BME280;19751;40.274;18.268;2023-04-26T03:31:15;100393.84;;;14.82;100.00
33404;BME280;19751;40.274;18.268;2023-04-26T03:33:41;100394.81;;;14.69;100.00
33404;BME280;19751;40.274;18.268;2023-04-26T03:36:06;100406.53;;;14.63;100.00
33404;BME280;19751;40.274;18.268;2023-04-26T03:38:32;100398.63;;;14.61;100.00
33404;BME280;19751;40.274;18.268;2023-04-26T03:40:57;100405.56;;;14.57;100.00
33404;BME280;19751;40.274;18.268;2023-04-26T03:43:23;100409.78;;;14.53;100.00
33404;BME280;19751;40.274;18.268;2023-04-26T03:45:49;100405.03;;;14.49;100.00
33404;BME280;19751;40.274;18.268;2023-04-26T03:48:15;100405.72;;;14.37;100.00
33404;BME280;19751;40.274;18.268;2023-04-26T03:50:41;100413.41;;;14.40;100.00
33404;BME280;19751;40.274;18.268;2023-04-26T03:53:09;100412.34;;;14.41;100.00
33404;BME280;19751;40.274;18.268;2023-04-26T03:55:35;100410.69;;;14.40;100.00
33404;BME280;19751;40.274;18.268;2023-04-26T03:58:01;100411.09;;;14.44;100.00
33404;BME280;19751;40.274;18.268;2023-04-26T04:00:27;100407.91;;;14.47;100.00
33404;BME280;19751;40.274;18.268;2023-04-26T04:02:53;100415.00;;;14.48;100.00
33404;BME280;19751;40.274;18.268;2023-04-26T04:05:18;100415.22;;;14.47;100.00
33404;BME280;19751;40.274;18.268;2023-04-26T04:07:44;100416.94;;;14.41;100.00
33404;BME280;19751;40.274;18.268;2023-04-26T04:10:09;100419.88;;;14.39;100.00
33404;BME280;19751;40.274;18.268;2023-04-26T04:12:35;100422.59;;;14.39;100.00
33404;BME280;19751;40.274;18.268;2023-04-26T04:15:01;100425.88;;;14.41;100.00
33404;BME280;19751;40.274;18.268;2023-04-26T04:17:27;100422.75;;;14.45;100.00
33404;BME280;19751;40.274;18.268;2023-04-26T04:19:52;100428.34;;;14.50;100.00
33404;BME280;19751;40.274;18.268;2023-04-26T04:22:18;100429.50;;;14.35;100.00
33404;BME280;19751;40.274;18.268;2023-04-26T04:24:43;100429.38;;;14.24;100.00
33404;BME280;19751;40.274;18.268;2023-04-26T04:27:09;100435.66;;;14.17;100.00
33404;BME280;19751;40.274;18.268;2023-04-26T04:29:34;100433.19;;;14.16;100.00
33404;BME280;19751;40.274;18.268;2023-04-26T04:32:00;100437.78;;;14.15;100.00
33404;BME280;19751;40.274;18.268;2023-04-26T04:34:26;100451.16;;;14.10;100.00
33404;BME280;19751;40.274;18.268;2023-04-26T04:36:51;100443.88;;;14.11;100.00
33404;BME280;19751;40.274;18.268;2023-04-26T04:39:17;100446.97;;;14.14;100.00
33404;BME280;19751;40.274;18.268;2023-04-26T04:41:43;100449.00;;;14.19;100.00
33404;BME280;19751;40.274;18.268;2023-04-26T04:44:13;100452.66;;;14.31;100.00
33404;BME280;19751;40.274;18.268;2023-04-26T04:46:40;100457.59;;;14.41;100.00
33404;BME280;19751;40.274;18.268;2023-04-26T04:49:06;100457.72;;;14.53;100.00
33404;BME280;19751;40.274;18.268;2023-04-26T04:51:33;100465.66;;;14.48;100.00
33404;BME280;19751;40.274;18.268;2023-04-26T04:54:11;100469.63;;;14.45;100.00
33404;BME280;19751;40.274;18.268;2023-04-26T04:56:38;100481.16;;;14.40;100.00
33404;BME280;19751;40.274;18.268;2023-04-26T04:59:04;100485.56;;;14.35;100.00
33404;BME280;19751;40.274;18.268;2023-04-26T05:01:30;100480.53;;;14.38;100.00
33404;BME280;19751;40.274;18.268;2023-04-26T05:03:57;100495.19;;;14.31;100.00
33404;BME280;19751;40.274;18.268;2023-04-26T05:06:23;100490.22;;;14.28;100.00
33404;BME280;19751;40.274;18.268;2023-04-26T05:08:48;100489.38;;;14.27;100.00
33404;BME280;19751;40.274;18.268;2023-04-26T05:11:14;100482.75;;;14.23;100.00
33404;BME280;19751;40.274;18.268;2023-04-26T05:13:39;100488.59;;;14.20;100.00
33404;BME280;19751;40.274;18.268;2023-04-26T05:16:05;100490.66;;;14.18;100.00
33404;BME280;19751;40.274;18.268;2023-04-26T05:18:31;100491.72;;;14.17;100.00
33404;BME280;19751;40.274;18.268;2023-04-26T05:20:56;100492.13;;;14.21;100.00
33404;BME280;19751;40.274;18.268;2023-04-26T05:23:22;100498.38;;;14.21;100.00
33404;BME280;19751;40.274;18.268;2023-04-26T05:25:48;100496.03;;;14.31;100.00
33404;BME280;19751;40.274;18.268;2023-04-26T05:28:13;100497.44;;;14.34;100.00
33404;BME280;19751;40.274;18.268;2023-04-26T05:30:39;100496.19;;;14.36;100.00
33404;BME280;19751;40.274;18.268;2023-04-26T05:33:05;100505.53;;;14.40;100.00
33404;BME280;19751;40.274;18.268;2023-04-26T05:35:31;100510.94;;;14.40;100.00
33404;BME280;19751;40.274;18.268;2023-04-26T05:37:57;100510.41;;;14.32;100.00
33404;BME280;19751;40.274;18.268;2023-04-26T05:40:22;100507.31;;;14.22;100.00
33404;BME280;19751;40.274;18.268;2023-04-26T05:42:49;100504.44;;;14.16;100.00
33404;BME280;19751;40.274;18.268;2023-04-26T05:45:15;100505.94;;;14.12;100.00
33404;BME280;19751;40.274;18.268;2023-04-26T05:47:40;100511.31;;;14.19;100.00
33404;BME280;19751;40.274;18.268;2023-04-26T05:50:06;100508.53;;;14.26;100.00
33404;BME280;19751;40.274;18.268;2023-04-26T05:52:32;100505.97;;;14.37;100.00
33404;BME280;19751;40.274;18.268;2023-04-26T05:54:58;100512.75;;;14.47;100.00
33404;BME280;19751;40.274;18.268;2023-04-26T05:57:24;100519.66;;;14.42;100.00
33404;BME280;19751;40.274;18.268;2023-04-26T05:59:50;100511.78;;;14.41;100.00
33404;BME280;19751;40.274;18.268;2023-04-26T06:02:15;100517.59;;;14.45;100.00
33404;BME280;19751;40.274;18.268;2023-04-26T06:04:41;100521.72;;;14.54;100.00
33404;BME280;19751;40.274;18.268;2023-04-26T06:07:06;100526.63;;;14.63;100.00
33404;BME280;19751;40.274;18.268;2023-04-26T06:09:32;100514.91;;;14.70;100.00
33404;BME280;19751;40.274;18.268;2023-04-26T06:11:58;100509.88;;;14.73;100.00
33404;BME280;19751;40.274;18.268;2023-04-26T06:14:23;100515.69;;;14.77;100.00
33404;BME280;19751;40.274;18.268;2023-04-26T06:16:49;100521.56;;;14.74;98.12
33404;BME280;19751;40.274;18.268;2023-04-26T06:19:14;100509.25;;;14.71;99.28
33404;BME280;19751;40.274;18.268;2023-04-26T06:21:40;100504.91;;;14.70;97.06
33404;BME280;19751;40.274;18.268;2023-04-26T06:24:05;100516.81;;;14.69;97.66
33404;BME280;19751;40.274;18.268;2023-04-26T06:26:31;100514.28;;;14.67;96.67
33404;BME280;19751;40.274;18.268;2023-04-26T06:28:57;100521.00;;;14.65;96.07
33404;BME280;19751;40.274;18.268;2023-04-26T06:31:22;100519.44;;;14.76;96.74
33404;BME280;19751;40.274;18.268;2023-04-26T06:33:48;100522.69;;;14.84;95.97
33404;BME280;19751;40.274;18.268;2023-04-26T06:36:13;100511.41;;;14.87;94.35
33404;BME280;19751;40.274;18.268;2023-04-26T06:38:39;100506.75;;;14.95;94.10
33404;BME280;19751;40.274;18.268;2023-04-26T06:41:04;100513.97;;;15.01;90.98
33404;BME280;19751;40.274;18.268;2023-04-26T06:43:30;100517.47;;;15.08;91.40
33404;BME280;19751;40.274;18.268;2023-04-26T06:45:55;100520.72;;;15.16;90.99
33404;BME280;19751;40.274;18.268;2023-04-26T06:48:21;100516.94;;;15.17;90.70
33404;BME280;19751;40.274;18.268;2023-04-26T06:50:46;100524.88;;;15.19;91.29
33404;BME280;19751;40.274;18.268;2023-04-26T06:53:12;100527.88;;;15.11;88.60
33404;BME280;19751;40.274;18.268;2023-04-26T06:55:37;100519.13;;;15.09;89.45
33404;BME280;19751;40.274;18.268;2023-04-26T06:58:03;100514.50;;;15.09;90.69
33404;BME280;19751;40.274;18.268;2023-04-26T07:00:28;100520.84;;;15.22;90.42
33404;BME280;19751;40.274;18.268;2023-04-26T07:02:54;100514.25;;;15.36;91.14
33404;BME280;19751;40.274;18.268;2023-04-26T07:05:20;100519.50;;;15.49;91.27
33404;BME280;19751;40.274;18.268;2023-04-26T07:07:45;100505.56;;;15.64;89.20
33404;BME280;19751;40.274;18.268;2023-04-26T07:10:12;100499.22;;;15.70;84.46
33404;BME280;19751;40.274;18.268;2023-04-26T07:12:38;100508.00;;;15.72;79.94
33404;BME280;19751;40.274;18.268;2023-04-26T07:15:04;100506.00;;;15.79;81.30
33404;BME280;19751;40.274;18.268;2023-04-26T07:17:31;100498.00;;;15.84;79.26
33404;BME280;19751;40.274;18.268;2023-04-26T07:19:57;100517.03;;;15.84;76.87
33404;BME280;19751;40.274;18.268;2023-04-26T07:22:22;100513.63;;;15.89;77.82
33404;BME280;19751;40.274;18.268;2023-04-26T07:24:48;100511.28;;;15.93;74.46
33404;BME280;19751;40.274;18.268;2023-04-26T07:27:14;100516.91;;;15.91;72.46
33404;BME280;19751;40.274;18.268;2023-04-26T07:29:39;100517.75;;;15.91;72.49
33404;BME280;19751;40.274;18.268;2023-04-26T07:32:05;100497.69;;;15.93;71.95
33404;BME280;19751;40.274;18.268;2023-04-26T07:34:31;100517.38;;;15.88;70.89
33404;BME280;19751;40.274;18.268;2023-04-26T07:36:56;100511.09;;;15.87;72.06
33404;BME280;19751;40.274;18.268;2023-04-26T07:39:22;100505.22;;;15.90;70.42
33404;BME280;19751;40.274;18.268;2023-04-26T07:41:48;100514.91;;;15.86;68.04
33404;BME280;19751;40.274;18.268;2023-04-26T07:44:13;100509.00;;;15.89;69.75
33404;BME280;19751;40.274;18.268;2023-04-26T07:46:39;100504.31;;;15.97;71.26
33404;BME280;19751;40.274;18.268;2023-04-26T07:49:05;100494.63;;;16.01;70.54
33404;BME280;19751;40.274;18.268;2023-04-26T07:51:30;100500.78;;;16.08;70.41
33404;BME280;19751;40.274;18.268;2023-04-26T07:53:56;100501.16;;;16.11;69.03
33404;BME280;19751;40.274;18.268;2023-04-26T07:56:22;100515.13;;;16.15;69.77
33404;BME280;19751;40.274;18.268;2023-04-26T07:58:51;100505.19;;;16.21;71.08
33404;BME280;19751;40.274;18.268;2023-04-26T08:01:17;100504.88;;;16.29;72.29
33404;BME280;19751;40.274;18.268;2023-04-26T08:03:42;100507.59;;;16.29;70.79
33404;BME280;19751;40.274;18.268;2023-04-26T08:06:08;100514.56;;;16.25;70.24
33404;BME280;19751;40.274;18.268;2023-04-26T08:08:34;100511.00;;;16.24;69.31
33404;BME280;19751;40.274;18.268;2023-04-26T08:11:07;100512.66;;;16.25;70.45
33404;BME280;19751;40.274;18.268;2023-04-26T08:13:32;100510.09;;;16.30;70.56
33404;BME280;19751;40.274;18.268;2023-04-26T08:15:58;100528.16;;;16.36;69.35
33404;BME280;19751;40.274;18.268;2023-04-26T08:18:23;100523.56;;;16.37;69.50
33404;BME280;19751;40.274;18.268;2023-04-26T08:20:49;100519.56;;;16.39;69.14
33404;BME280;19751;40.274;18.268;2023-04-26T08:23:15;100523.69;;;16.42;67.29
33404;BME280;19751;40.274;18.268;2023-04-26T08:25:40;100526.31;;;16.49;65.54
33404;BME280;19751;40.274;18.268;2023-04-26T08:28:06;100528.13;;;16.55;66.50
33404;BME280;19751;40.274;18.268;2023-04-26T08:30:33;100529.31;;;16.59;65.66
33404;BME280;19751;40.274;18.268;2023-04-26T08:32:58;100532.72;;;16.66;66.49
33404;BME280;19751;40.274;18.268;2023-04-26T08:35:24;100535.13;;;16.74;65.51
33404;BME280;19751;40.274;18.268;2023-04-26T08:37:50;100529.06;;;16.72;65.60
33404;BME280;19751;40.274;18.268;2023-04-26T08:40:21;100551.38;;;16.62;68.10
33404;BME280;19751;40.274;18.268;2023-04-26T08:42:47;100572.06;;;16.52;71.18
33404;BME280;19751;40.274;18.268;2023-04-26T08:45:13;100573.94;;;16.39;74.10
33404;BME280;19751;40.274;18.268;2023-04-26T08:47:46;100564.66;;;16.29;76.70
33404;BME280;19751;40.274;18.268;2023-04-26T08:50:13;100562.13;;;16.15;79.02
33404;BME280;19751;40.274;18.268;2023-04-26T08:52:40;100568.84;;;16.13;80.74
33404;BME280;19751;40.274;18.268;2023-04-26T08:55:07;100565.31;;;16.12;82.36
33404;BME280;19751;40.274;18.268;2023-04-26T08:57:34;100559.75;;;16.07;85.10
33404;BME280;19751;40.274;18.268;2023-04-26T09:00:04;100561.50;;;16.02;86.68
33404;BME280;19751;40.274;18.268;2023-04-26T09:02:30;100558.78;;;16.02;88.40
33404;BME280;19751;40.274;18.268;2023-04-26T09:04:56;100563.28;;;16.08;89.25
33404;BME280;19751;40.274;18.268;2023-04-26T09:07:33;100548.09;;;16.19;91.96
33404;BME280;19751;40.274;18.268;2023-04-26T09:10:00;100547.78;;;16.27;93.07
33404;BME280;19751;40.274;18.268;2023-04-26T09:12:25;100547.91;;;16.32;93.38
33404;BME280;19751;40.274;18.268;2023-04-26T09:14:51;100544.97;;;16.45;93.28
33404;BME280;19751;40.274;18.268;2023-04-26T09:19:56;100554.56;;;16.48;91.20
33404;BME280;19751;40.274;18.268;2023-04-26T09:24:57;100565.78;;;16.39;81.98
33404;BME280;19751;40.274;18.268;2023-04-26T09:27:36;100566.34;;;16.41;80.98
33404;BME280;19751;40.274;18.268;2023-04-26T09:30:08;100568.38;;;16.46;83.52
33404;BME280;19751;40.274;18.268;2023-04-26T09:32:56;100598.19;;;16.53;86.56
33404;BME280;19751;40.274;18.268;2023-04-26T09:38:12;100580.69;;;16.49;89.43
33404;BME280;19751;40.274;18.268;2023-04-26T09:40:46;100584.34;;;16.43;90.88
33404;BME280;19751;40.274;18.268;2023-04-26T09:43:18;100580.66;;;16.37;86.82
33404;BME280;19751;40.274;18.268;2023-04-26T09:45:52;100605.81;;;16.32;82.03
33404;BME280;19751;40.274;18.268;2023-04-26T09:50:48;100617.53;;;16.45;82.22
33404;BME280;19751;40.274;18.268;2023-04-26T09:53:48;100586.25;;;16.54;82.13
33404;BME280;19751;40.274;18.268;2023-04-26T09:56:18;100572.09;;;16.63;82.57
33404;BME280;19751;40.274;18.268;2023-04-26T09:58:55;100596.09;;;16.66;85.12
33404;BME280;19751;40.274;18.268;2023-04-26T10:01:27;100582.63;;;16.60;87.15
33404;BME280;19751;40.274;18.268;2023-04-26T10:04:05;100584.97;;;16.56;87.65
33404;BME280;19751;40.274;18.268;2023-04-26T10:06:31;100582.00;;;16.58;86.79
33404;BME280;19751;40.274;18.268;2023-04-26T10:08:57;100569.72;;;16.67;88.89
33404;BME280;19751;40.274;18.268;2023-04-26T10:11:23;100581.72;;;16.78;89.83
33404;BME280;19751;40.274;18.268;2023-04-26T10:13:50;100575.47;;;16.77;87.03
33404;BME280;19751;40.274;18.268;2023-04-26T10:16:16;100591.84;;;16.71;84.14
33404;BME280;19751;40.274;18.268;2023-04-26T10:18:42;100595.25;;;16.66;84.00
33404;BME280;19751;40.274;18.268;2023-04-26T10:21:12;100596.44;;;16.70;80.67
33404;BME280;19751;40.274;18.268;2023-04-26T10:23:41;100607.28;;;16.77;72.86
33404;BME280;19751;40.274;18.268;2023-04-26T10:29:11;100602.91;;;16.87;69.51
33404;BME280;19751;40.274;18.268;2023-04-26T10:34:31;100591.47;;;16.97;65.62
33404;BME280;19751;40.274;18.268;2023-04-26T10:37:13;100597.72;;;16.98;70.44
33404;BME280;19751;40.274;18.268;2023-04-26T10:39:41;100606.00;;;17.03;72.38
33404;BME280;19751;40.274;18.268;2023-04-26T10:42:25;100596.31;;;17.07;78.48
33404;BME280;19751;40.274;18.268;2023-04-26T10:45:26;100593.34;;;17.08;80.26
33404;BME280;19751;40.274;18.268;2023-04-26T10:59:15;100589.78;;;17.08;81.62
33404;BME280;19751;40.274;18.268;2023-04-26T11:01:43;100588.88;;;17.26;79.50
33404;BME280;19751;40.274;18.268;2023-04-26T11:04:10;100590.97;;;17.24;75.89
33404;BME280;19751;40.274;18.268;2023-04-26T11:06:48;100597.03;;;17.26;73.95
33404;BME280;19751;40.274;18.268;2023-04-26T11:12:04;100590.16;;;17.35;71.46
33404;BME280;19751;40.274;18.268;2023-04-26T11:14:30;100606.72;;;17.45;65.02
33404;BME280;19751;40.274;18.268;2023-04-26T11:16:55;100601.25;;;17.45;63.49
33404;BME280;19751;40.274;18.268;2023-04-26T11:19:21;100612.41;;;17.44;65.37
33404;BME280;19751;40.274;18.268;2023-04-26T11:21:47;100616.31;;;17.36;64.71
33404;BME280;19751;40.274;18.268;2023-04-26T11:24:15;100599.97;;;17.36;65.81
33404;BME280;19751;40.274;18.268;2023-04-26T11:26:41;100603.31;;;17.38;67.15
33404;BME280;19751;40.274;18.268;2023-04-26T11:29:07;100621.75;;;17.36;68.15
33404;BME280;19751;40.274;18.268;2023-04-26T11:31:33;100604.13;;;17.38;65.82
33404;BME280;19751;40.274;18.268;2023-04-26T11:34:05;100612.66;;;17.42;66.93
33404;BME280;19751;40.274;18.268;2023-04-26T11:36:30;100625.41;;;17.42;65.45
33404;BME280;19751;40.274;18.268;2023-04-26T11:38:57;100613.59;;;17.36;65.26
33404;BME280;19751;40.274;18.268;2023-04-26T11:41:22;100617.97;;;17.37;65.58
33404;BME280;19751;40.274;18.268;2023-04-26T11:43:48;100618.31;;;17.40;62.02
33404;BME280;19751;40.274;18.268;2023-04-26T11:46:14;100622.69;;;17.42;63.26
33404;BME280;19751;40.274;18.268;2023-04-26T11:48:41;100615.13;;;17.44;64.55
33404;BME280;19751;40.274;18.268;2023-04-26T11:51:07;100591.19;;;17.46;69.21
33404;BME280;19751;40.274;18.268;2023-04-26T11:53:40;100600.53;;;17.50;76.45
33404;BME280;19751;40.274;18.268;2023-04-26T11:56:13;100597.97;;;17.55;79.40
33404;BME280;19751;40.274;18.268;2023-04-26T11:58:49;100605.06;;;17.56;80.89
33404;BME280;19751;40.274;18.268;2023-04-26T12:01:25;100601.25;;;17.57;78.53
33404;BME280;19751;40.274;18.268;2023-04-26T12:03:58;100617.59;;;17.57;78.56
33404;BME280;19751;40.274;18.268;2023-04-26T12:06:31;100609.91;;;17.54;78.53
33404;BME280;19751;40.274;18.268;2023-04-26T12:09:05;100620.56;;;17.55;80.38
33404;BME280;19751;40.274;18.268;2023-04-26T12:11:33;100616.06;;;17.61;81.55
33404;BME280;19751;40.274;18.268;2023-04-26T12:13:58;100626.38;;;17.59;79.96
33404;BME280;19751;40.274;18.268;2023-04-26T12:16:25;100624.59;;;17.53;79.02
33404;BME280;19751;40.274;18.268;2023-04-26T12:18:51;100623.16;;;17.62;81.82
33404;BME280;19751;40.274;18.268;2023-04-26T12:21:17;100624.47;;;17.71;81.70
33404;BME280;19751;40.274;18.268;2023-04-26T12:23:43;100630.03;;;17.76;82.02
33404;BME280;19751;40.274;18.268;2023-04-26T12:26:12;100632.16;;;17.74;83.36
33404;BME280;19751;40.274;18.268;2023-04-26T12:28:37;100626.94;;;17.73;82.84
33404;BME280;19751;40.274;18.268;2023-04-26T12:31:03;100643.41;;;17.66;81.58
33404;BME280;19751;40.274;18.268;2023-04-26T12:33:29;100640.19;;;17.69;78.28
33404;BME280;19751;40.274;18.268;2023-04-26T12:35:55;100635.34;;;17.71;78.12
33404;BME280;19751;40.274;18.268;2023-04-26T12:38:22;100635.72;;;17.75;76.24
33404;BME280;19751;40.274;18.268;2023-04-26T12:40:47;100639.88;;;17.77;77.32
33404;BME280;19751;40.274;18.268;2023-04-26T12:43:13;100634.06;;;17.85;73.86
33404;BME280;19751;40.274;18.268;2023-04-26T12:45:40;100640.78;;;17.95;71.18
33404;BME280;19751;40.274;18.268;2023-04-26T12:48:06;100650.50;;;17.91;73.69
33404;BME280;19751;40.274;18.268;2023-04-26T12:50:32;100655.38;;;17.88;77.19
33404;BME280;19751;40.274;18.268;2023-04-26T12:52:57;100646.00;;;17.96;75.36
33404;BME280;19751;40.274;18.268;2023-04-26T12:55:23;100650.72;;;18.01;73.05
33404;BME280;19751;40.274;18.268;2023-04-26T12:57:49;100674.53;;;18.05;74.43
33404;BME280;19751;40.274;18.268;2023-04-26T13:00:16;100649.53;;;18.08;74.31
33404;BME280;19751;40.274;18.268;2023-04-26T13:02:45;100652.09;;;18.15;72.93
33404;BME280;19751;40.274;18.268;2023-04-26T13:05:11;100645.25;;;18.12;65.06